sensor_id;sensor_type;location;lat;lon;timestamp;pressure;altitude;pressure_sealevel;temperature;humidity
78573;BME280;67862;0.000;0.000;2023-12-29T00:00:36;99462.78;;;22.52;55.34
78573;BME280;67862;0.000;0.000;2023-12-29T00:03:02;99464.16;;;22.74;56.84
78573;BME280;67862;0.000;0.000;2023-12-29T00:05:27;99458.00;;;22.87;54.62
78573;BME280;67862;0.000;0.000;2023-12-29T00:07:53;99462.41;;;22.83;54.67
78573;BME280;67862;0.000;0.000;2023-12-29T00:10:18;99450.34;;;22.89;55.03
78573;BME280;67862;0.000;0.000;2023-12-29T00:12:43;99453.38;;;22.88;54.97
78573;BME280;67862;0.000;0.000;2023-12-29T00:15:09;99450.34;;;22.89;55.67
78573;BME280;67862;0.000;0.000;2023-12-29T00:17:34;99446.47;;;22.90;55.41
78573;BME280;67862;0.000;0.000;2023-12-29T00:20:05;99453.38;;;22.88;55.47
78573;BME280;67862;0.000;0.000;2023-12-29T00:22:33;99444.59;;;22.85;55.44
78573;BME280;67862;0.000;0.000;2023-12-29T00:24:58;99451.22;;;23.03;56.00
78573;BME280;67862;0.000;0.000;2023-12-29T00:27:24;99449.53;;;23.07;55.84
78573;BME280;67862;0.000;0.000;2023-12-29T00:29:49;99454.59;;;22.95;55.82
78573;BME280;67862;0.000;0.000;2023-12-29T00:32:14;99455.56;;;22.85;55.86
78573;BME280;67862;0.000;0.000;2023-12-29T00:34:40;99457.75;;;22.83;55.82
78573;BME280;67862;0.000;0.000;2023-12-29T00:37:05;99447.41;;;22.80;55.85
78573;BME280;67862;0.000;0.000;2023-12-29T00:39:31;99446.59;;;22.80;55.83
78573;BME280;67862;0.000;0.000;2023-12-29T00:42:03;99438.88;;;22.82;56.15
78573;BME280;67862;0.000;0.000;2023-12-29T00:44:29;99436.75;;;22.79;56.32
78573;BME280;67862;0.000;0.000;2023-12-29T00:46:54;99432.09;;;22.79;56.31
78573;BME280;67862;0.000;0.000;2023-12-29T00:49:19;99428.22;;;22.80;56.83
78573;BME280;67862;0.000;0.000;2023-12-29T00:51:47;99435.63;;;22.80;56.28
78573;BME280;67862;0.000;0.000;2023-12-29T00:54:12;99436.44;;;22.80;56.40
78573;BME280;67862;0.000;0.000;2023-12-29T00:56:38;99441.09;;;22.80;56.82
78573;BME280;67862;0.000;0.000;2023-12-29T00:59:03;99447.41;;;22.80;56.93
78573;BME280;67862;0.000;0.000;2023-12-29T01:04:17;99432.59;;;22.81;57.26
78573;BME280;67862;0.000;0.000;2023-12-29T01:06:42;99442.72;;;22.81;57.15
78573;BME280;67862;0.000;0.000;2023-12-29T01:09:07;99440.25;;;22.84;57.35
78573;BME280;67862;0.000;0.000;2023-12-29T01:11:34;99430.63;;;22.87;57.41
78573;BME280;67862;0.000;0.000;2023-12-29T01:13:59;99432.28;;;22.88;57.26
78573;BME280;67862;0.000;0.000;2023-12-29T01:16:25;99432.72;;;22.95;57.43
78573;BME280;67862;0.000;0.000;2023-12-29T01:18:50;99431.84;;;23.00;57.75
78573;BME280;67862;0.000;0.000;2023-12-29T01:21:15;99422.22;;;23.02;57.78
78573;BME280;67862;0.000;0.000;2023-12-29T01:23:41;99416.75;;;23.02;57.29
78573;BME280;67862;0.000;0.000;2023-12-29T01:26:06;99420.28;;;23.03;57.53
78573;BME280;67862;0.000;0.000;2023-12-29T01:28:31;99418.06;;;23.05;57.11
78573;BME280;67862;0.000;0.000;2023-12-29T01:30:57;99418.06;;;23.05;57.49
78573;BME280;67862;0.000;0.000;2023-12-29T01:33:22;99420.59;;;23.01;57.36
78573;BME280;67862;0.000;0.000;2023-12-29T01:35:48;99419.56;;;22.97;57.74
78573;BME280;67862;0.000;0.000;2023-12-29T01:38:16;99421.75;;;22.95;57.70
78573;BME280;67862;0.000;0.000;2023-12-29T01:40:42;99420.13;;;22.94;57.57
78573;BME280;67862;0.000;0.000;2023-12-29T01:43:08;99410.25;;;22.98;57.61
78573;BME280;67862;0.000;0.000;2023-12-29T01:45:33;99422.22;;;23.02;57.54
78573;BME280;67862;0.000;0.000;2023-12-29T01:47:58;99414.81;;;23.03;57.66
78573;BME280;67862;0.000;0.000;2023-12-29T01:50:24;99413.19;;;23.02;58.01
78573;BME280;67862;0.000;0.000;2023-12-29T01:52:49;99412.88;;;23.03;57.52
78573;BME280;67862;0.000;0.000;2023-12-29T01:55:18;99407.34;;;23.08;57.35
78573;BME280;67862;0.000;0.000;2023-12-29T01:57:44;99392.84;;;23.08;57.40
78573;BME280;67862;0.000;0.000;2023-12-29T02:00:10;99387.06;;;23.09;57.15
78573;BME280;67862;0.000;0.000;2023-12-29T02:02:36;99395.28;;;23.09;57.50
78573;BME280;67862;0.000;0.000;2023-12-29T02:05:02;99396.91;;;23.10;57.12
78573;BME280;67862;0.000;0.000;2023-12-29T02:07:27;99387.59;;;23.11;57.19
78573;BME280;67862;0.000;0.000;2023-12-29T02:09:56;99386.78;;;23.11;57.06
78573;BME280;67862;0.000;0.000;2023-12-29T02:12:22;99389.00;;;23.09;57.16
78573;BME280;67862;0.000;0.000;2023-12-29T02:14:47;99385.75;;;23.07;57.06
78573;BME280;67862;0.000;0.000;2023-12-29T02:17:17;99397.50;;;23.07;57.14
78573;BME280;67862;0.000;0.000;2023-12-29T02:19:46;99407.66;;;23.07;57.36
78573;BME280;67862;0.000;0.000;2023-12-29T02:22:14;99411.47;;;23.06;57.01
78573;BME280;67862;0.000;0.000;2023-12-29T02:24:43;99413.41;;;23.05;57.26
78573;BME280;67862;0.000;0.000;2023-12-29T02:29:37;99410.66;;;23.05;57.40
78573;BME280;67862;0.000;0.000;2023-12-29T02:32:04;99400.53;;;23.06;57.51
78573;BME280;67862;0.000;0.000;2023-12-29T02:34:31;99406.81;;;23.06;57.70
78573;BME280;67862;0.000;0.000;2023-12-29T02:36:57;99391.50;;;23.05;58.10
78573;BME280;67862;0.000;0.000;2023-12-29T02:39:24;99398.59;;;23.06;57.93
78573;BME280;67862;0.000;0.000;2023-12-29T02:41:49;99389.56;;;23.06;57.37
78573;BME280;67862;0.000;0.000;2023-12-29T02:44:14;99386.78;;;23.11;57.48
78573;BME280;67862;0.000;0.000;2023-12-29T02:46:40;99393.56;;;23.13;57.53
78573;BME280;67862;0.000;0.000;2023-12-29T02:49:05;99382.03;;;23.17;57.46
78573;BME280;67862;0.000;0.000;2023-12-29T02:51:36;99376.56;;;23.17;57.60
78573;BME280;67862;0.000;0.000;2023-12-29T02:54:01;99379.31;;;23.17;57.32
78573;BME280;67862;0.000;0.000;2023-12-29T02:56:27;99370.56;;;23.14;57.45
78573;BME280;67862;0.000;0.000;2023-12-29T02:58:52;99366.78;;;23.10;57.57
78573;BME280;67862;0.000;0.000;2023-12-29T03:01:17;99367.91;;;23.09;57.87
78573;BME280;67862;0.000;0.000;2023-12-29T03:03:43;99375.59;;;23.07;57.25
78573;BME280;67862;0.000;0.000;2023-12-29T03:06:08;99367.41;;;23.07;57.37
78573;BME280;67862;0.000;0.000;2023-12-29T03:08:34;99366.84;;;23.05;57.35
78573;BME280;67862;0.000;0.000;2023-12-29T03:10:59;99375.06;;;23.05;57.37
78573;BME280;67862;0.000;0.000;2023-12-29T03:13:24;99372.06;;;23.07;57.56
78573;BME280;67862;0.000;0.000;2023-12-29T03:15:50;99360.56;;;23.05;57.54
78573;BME280;67862;0.000;0.000;2023-12-29T03:18:15;99362.78;;;23.03;57.45
78573;BME280;67862;0.000;0.000;2023-12-29T03:20:40;99364.13;;;23.05;57.45
78573;BME280;67862;0.000;0.000;2023-12-29T03:23:06;99359.44;;;23.06;57.18
78573;BME280;67862;0.000;0.000;2023-12-29T03:25:31;99361.38;;;23.05;57.04
78573;BME280;67862;0.000;0.000;2023-12-29T03:27:56;99353.47;;;23.04;57.05
78573;BME280;67862;0.000;0.000;2023-12-29T03:30:22;99352.66;;;23.03;57.30
78573;BME280;67862;0.000;0.000;2023-12-29T03:32:47;99353.47;;;23.04;57.11
78573;BME280;67862;0.000;0.000;2023-12-29T03:35:13;99358.13;;;23.03;57.10
78573;BME280;67862;0.000;0.000;2023-12-29T03:37:38;99371.81;;;23.03;57.57
78573;BME280;67862;0.000;0.000;2023-12-29T03:40:03;99366.66;;;23.02;57.53
78573;BME280;67862;0.000;0.000;2023-12-29T03:42:29;99367.47;;;23.02;57.35
78573;BME280;67862;0.000;0.000;2023-12-29T03:44:54;99364.50;;;22.99;56.77
78573;BME280;67862;0.000;0.000;2023-12-29T03:47:19;99383.69;;;22.99;57.02
78573;BME280;67862;0.000;0.000;2023-12-29T03:49:45;99372.72;;;22.99;56.90
78573;BME280;67862;0.000;0.000;2023-12-29T03:52:10;99366.44;;;22.98;56.83
78573;BME280;67862;0.000;0.000;2023-12-29T03:54:35;99371.09;;;22.98;56.78
78573;BME280;67862;0.000;0.000;2023-12-29T03:57:01;99364.81;;;22.97;57.01
78573;BME280;67862;0.000;0.000;2023-12-29T03:59:26;99370.28;;;22.97;56.93
78573;BME280;67862;0.000;0.000;2023-12-29T04:01:51;99372.19;;;22.97;56.54
78573;BME280;67862;0.000;0.000;2023-12-29T04:04:17;99385.59;;;22.98;56.52
78573;BME280;67862;0.000;0.000;2023-12-29T04:06:42;99384.25;;;22.96;56.72
78573;BME280;67862;0.000;0.000;2023-12-29T04:09:07;99381.00;;;22.94;57.05
78573;BME280;67862;0.000;0.000;2023-12-29T04:11:33;99384.03;;;22.92;57.06
78573;BME280;67862;0.000;0.000;2023-12-29T04:13:58;99388.69;;;22.92;56.83
78573;BME280;67862;0.000;0.000;2023-12-29T04:16:23;99390.09;;;22.89;56.96
78573;BME280;67862;0.000;0.000;2023-12-29T04:18:49;99385.75;;;22.88;56.93
78573;BME280;67862;0.000;0.000;2023-12-29T04:21:14;99392.84;;;22.89;57.09
78573;BME280;67862;0.000;0.000;2023-12-29T04:23:40;99387.66;;;22.88;57.35
78573;BME280;67862;0.000;0.000;2023-12-29T04:26:07;99392.31;;;22.87;57.24
78573;BME280;67862;0.000;0.000;2023-12-29T04:28:32;99385.19;;;22.86;57.37
78573;BME280;67862;0.000;0.000;2023-12-29T04:30:58;99382.47;;;22.86;57.39
78573;BME280;67862;0.000;0.000;2023-12-29T04:33:23;99381.94;;;22.84;57.76
78573;BME280;67862;0.000;0.000;2023-12-29T04:35:48;99382.75;;;22.84;57.77
78573;BME280;67862;0.000;0.000;2023-12-29T04:38:14;99381.66;;;22.85;57.67
78573;BME280;67862;0.000;0.000;2023-12-29T04:40:40;99373.13;;;22.87;58.01
78573;BME280;67862;0.000;0.000;2023-12-29T04:43:06;99373.69;;;22.89;57.79
78573;BME280;67862;0.000;0.000;2023-12-29T04:45:31;99377.22;;;22.90;57.75
78573;BME280;67862;0.000;0.000;2023-12-29T04:47:57;99388.75;;;22.87;57.69
78573;BME280;67862;0.000;0.000;2023-12-29T04:50:22;99379.72;;;22.86;57.15
78573;BME280;67862;0.000;0.000;2023-12-29T04:52:47;99378.09;;;22.85;57.30
78573;BME280;67862;0.000;0.000;2023-12-29T04:55:13;99374.78;;;22.88;57.00
78573;BME280;67862;0.000;0.000;2023-12-29T04:57:39;99369.75;;;22.95;57.33
78573;BME280;67862;0.000;0.000;2023-12-29T05:00:05;99373.09;;;22.92;57.48
78573;BME280;67862;0.000;0.000;2023-12-29T05:02:30;99375.31;;;22.90;57.55
78573;BME280;67862;0.000;0.000;2023-12-29T05:04:55;99381.59;;;22.91;57.68
78573;BME280;67862;0.000;0.000;2023-12-29T05:07:23;99382.19;;;22.88;57.17
78573;BME280;67862;0.000;0.000;2023-12-29T05:09:49;99371.81;;;22.84;57.20
78573;BME280;67862;0.000;0.000;2023-12-29T05:12:14;99371.28;;;22.82;56.97
78573;BME280;67862;0.000;0.000;2023-12-29T05:14:40;99365.53;;;22.84;57.20
78573;BME280;67862;0.000;0.000;2023-12-29T05:17:05;99356.78;;;22.82;56.78
78573;BME280;67862;0.000;0.000;2023-12-29T05:19:30;99363.88;;;22.83;57.19
78573;BME280;67862;0.000;0.000;2023-12-29T05:21:55;99369.94;;;22.80;57.01
78573;BME280;67862;0.000;0.000;2023-12-29T05:24:21;99374.06;;;22.77;57.24
78573;BME280;67862;0.000;0.000;2023-12-29T05:26:46;99379.84;;;22.76;56.91
78573;BME280;67862;0.000;0.000;2023-12-29T05:29:11;99380.94;;;22.75;56.70
78573;BME280;67862;0.000;0.000;2023-12-29T05:31:37;99380.44;;;22.73;56.99
78573;BME280;67862;0.000;0.000;2023-12-29T05:34:02;99373.56;;;22.75;57.19
78573;BME280;67862;0.000;0.000;2023-12-29T05:36:27;99376.00;;;22.77;57.16
78573;BME280;67862;0.000;0.000;2023-12-29T05:38:53;99381.25;;;22.73;57.64
78573;BME280;67862;0.000;0.000;2023-12-29T05:41:18;99375.56;;;22.70;57.18
78573;BME280;67862;0.000;0.000;2023-12-29T05:43:44;99375.56;;;22.70;57.50
78573;BME280;67862;0.000;0.000;2023-12-29T05:46:12;99385.69;;;22.69;57.27
78573;BME280;67862;0.000;0.000;2023-12-29T05:48:37;99381.84;;;22.70;57.47
78573;BME280;67862;0.000;0.000;2023-12-29T05:51:09;99391.44;;;22.68;57.63
78573;BME280;67862;0.000;0.000;2023-12-29T05:53:35;99405.66;;;22.70;57.52
78573;BME280;67862;0.000;0.000;2023-12-29T05:56:00;99408.97;;;22.67;57.58
78573;BME280;67862;0.000;0.000;2023-12-29T05:58:26;99412.50;;;22.67;57.65
78573;BME280;67862;0.000;0.000;2023-12-29T06:00:51;99404.59;;;22.66;57.46
78573;BME280;67862;0.000;0.000;2023-12-29T06:03:17;99394.78;;;22.65;57.56
78573;BME280;67862;0.000;0.000;2023-12-29T06:05:42;99388.78;;;22.63;57.26
78573;BME280;67862;0.000;0.000;2023-12-29T06:08:07;99393.44;;;22.62;57.47
78573;BME280;67862;0.000;0.000;2023-12-29T06:10:33;99403.56;;;22.62;57.11
78573;BME280;67862;0.000;0.000;2023-12-29T06:12:58;99401.66;;;22.62;57.24
78573;BME280;67862;0.000;0.000;2023-12-29T06:15:23;99401.94;;;22.61;57.52
78573;BME280;67862;0.000;0.000;2023-12-29T06:17:49;99395.38;;;22.62;57.58
78573;BME280;67862;0.000;0.000;2023-12-29T06:20:14;99397.59;;;22.60;57.60
78573;BME280;67862;0.000;0.000;2023-12-29T06:22:40;99394.25;;;22.63;58.13
78573;BME280;67862;0.000;0.000;2023-12-29T06:25:09;99387.97;;;22.62;57.99
78573;BME280;67862;0.000;0.000;2023-12-29T06:27:35;99389.88;;;22.62;57.42
78573;BME280;67862;0.000;0.000;2023-12-29T06:30:04;99392.94;;;22.60;57.51
78573;BME280;67862;0.000;0.000;2023-12-29T06:32:30;99392.63;;;22.62;57.60
78573;BME280;67862;0.000;0.000;2023-12-29T06:34:56;99399.22;;;22.61;57.11
78573;BME280;67862;0.000;0.000;2023-12-29T06:37:21;99400.84;;;22.62;57.03
78573;BME280;67862;0.000;0.000;2023-12-29T06:39:46;99392.63;;;22.62;57.23
78573;BME280;67862;0.000;0.000;2023-12-29T06:42:12;99401.13;;;22.60;57.09
78573;BME280;67862;0.000;0.000;2023-12-29T06:44:37;99392.13;;;22.60;57.01
78573;BME280;67862;0.000;0.000;2023-12-29T06:47:03;99388.00;;;22.57;57.01
78573;BME280;67862;0.000;0.000;2023-12-29T06:49:30;99390.50;;;22.59;56.93
78573;BME280;67862;0.000;0.000;2023-12-29T06:51:56;99381.72;;;22.56;56.81
78573;BME280;67862;0.000;0.000;2023-12-29T06:54:22;99376.25;;;22.56;57.01
78573;BME280;67862;0.000;0.000;2023-12-29T06:56:47;99384.47;;;22.56;57.04
78573;BME280;67862;0.000;0.000;2023-12-29T06:59:14;99386.38;;;22.56;56.94
78573;BME280;67862;0.000;0.000;2023-12-29T07:01:39;99394.31;;;22.57;56.92
78573;BME280;67862;0.000;0.000;2023-12-29T07:04:06;99404.72;;;22.55;57.08
78573;BME280;67862;0.000;0.000;2023-12-29T07:06:31;99410.19;;;22.55;57.14
78573;BME280;67862;0.000;0.000;2023-12-29T07:08:56;99413.53;;;22.52;56.78
78573;BME280;67862;0.000;0.000;2023-12-29T07:11:22;99405.31;;;22.52;56.86
78573;BME280;67862;0.000;0.000;2023-12-29T07:13:47;99414.94;;;22.50;56.93
78573;BME280;67862;0.000;0.000;2023-12-29T07:16:12;99420.69;;;22.48;57.21
78573;BME280;67862;0.000;0.000;2023-12-29T07:18:38;99419.06;;;22.47;57.22
78573;BME280;67862;0.000;0.000;2023-12-29T07:21:03;99411.94;;;22.46;57.16
78573;BME280;67862;0.000;0.000;2023-12-29T07:23:29;99415.78;;;22.45;57.28
78573;BME280;67862;0.000;0.000;2023-12-29T07:25:54;99418.53;;;22.45;57.43
78573;BME280;67862;0.000;0.000;2023-12-29T07:28:19;99415.97;;;22.54;57.78
78573;BME280;67862;0.000;0.000;2023-12-29T07:30:45;99413.84;;;22.51;57.69
78573;BME280;67862;0.000;0.000;2023-12-29T07:33:10;99409.22;;;22.46;57.64
78573;BME280;67862;0.000;0.000;2023-12-29T07:35:35;99407.59;;;22.45;57.78
78573;BME280;67862;0.000;0.000;2023-12-29T07:38:01;99406.78;;;22.45;57.70
78573;BME280;67862;0.000;0.000;2023-12-29T07:40:26;99405.16;;;22.44;57.25
78573;BME280;67862;0.000;0.000;2023-12-29T07:42:52;99400.50;;;22.44;57.76
78573;BME280;67862;0.000;0.000;2023-12-29T07:45:17;99401.81;;;22.47;57.97
78573;BME280;67862;0.000;0.000;2023-12-29T07:47:43;99400.16;;;22.51;57.94
78573;BME280;67862;0.000;0.000;2023-12-29T07:50:08;99403.75;;;22.46;57.68
78573;BME280;67862;0.000;0.000;2023-12-29T07:52:34;99402.41;;;22.44;57.94
78573;BME280;67862;0.000;0.000;2023-12-29T07:54:59;99404.34;;;22.43;57.13
78573;BME280;67862;0.000;0.000;2023-12-29T07:57:24;99407.19;;;22.33;56.51
78573;BME280;67862;0.000;0.000;2023-12-29T07:59:50;99394.97;;;22.25;55.88
78573;BME280;67862;0.000;0.000;2023-12-29T08:02:15;99401.53;;;22.24;55.93
78573;BME280;67862;0.000;0.000;2023-12-29T08:04:41;99404.56;;;22.23;54.92
78573;BME280;67862;0.000;0.000;2023-12-29T08:07:07;99409.16;;;22.27;55.16
78573;BME280;67862;0.000;0.000;2023-12-29T08:09:32;99407.59;;;22.21;55.64
78573;BME280;67862;0.000;0.000;2023-12-29T08:11:57;99408.41;;;22.22;55.05
78573;BME280;67862;0.000;0.000;2023-12-29T08:14:23;99410.63;;;22.20;54.67
78573;BME280;67862;0.000;0.000;2023-12-29T08:16:48;99404.31;;;22.19;55.02
78573;BME280;67862;0.000;0.000;2023-12-29T08:19:13;99406.25;;;22.19;54.61
78573;BME280;67862;0.000;0.000;2023-12-29T08:21:40;99419.09;;;22.18;54.97
78573;BME280;67862;0.000;0.000;2023-12-29T08:24:06;99408.75;;;22.15;54.18
78573;BME280;67862;0.000;0.000;2023-12-29T08:26:31;99416.66;;;22.17;54.35
78573;BME280;67862;0.000;0.000;2023-12-29T08:28:56;99418.28;;;22.18;54.40
78573;BME280;67862;0.000;0.000;2023-12-29T08:31:22;99413.41;;;22.15;54.18
78573;BME280;67862;0.000;0.000;2023-12-29T08:33:48;99420.50;;;22.16;53.84
78573;BME280;67862;0.000;0.000;2023-12-29T08:36:18;99412.59;;;22.14;54.28
78573;BME280;67862;0.000;0.000;2023-12-29T08:38:43;99422.13;;;22.17;53.87
78573;BME280;67862;0.000;0.000;2023-12-29T08:41:09;99421.03;;;22.18;53.20
78573;BME280;67862;0.000;0.000;2023-12-29T08:43:34;99426.19;;;22.19;53.41
78573;BME280;67862;0.000;0.000;2023-12-29T08:46:01;99420.72;;;22.19;54.36
78573;BME280;67862;0.000;0.000;2023-12-29T08:48:27;99432.50;;;22.20;54.25
78573;BME280;67862;0.000;0.000;2023-12-29T08:50:52;99432.50;;;22.20;54.19
78573;BME280;67862;0.000;0.000;2023-12-29T08:53:17;99429.78;;;22.20;54.18
78573;BME280;67862;0.000;0.000;2023-12-29T08:55:43;99435.25;;;22.20;54.16
78573;BME280;67862;0.000;0.000;2023-12-29T08:58:08;99438.50;;;22.22;54.05
78573;BME280;67862;0.000;0.000;2023-12-29T09:00:33;99443.16;;;22.21;53.81
78573;BME280;67862;0.000;0.000;2023-12-29T09:02:59;99438.50;;;22.22;54.27
78573;BME280;67862;0.000;0.000;2023-12-29T09:05:24;99440.13;;;22.23;53.71
78573;BME280;67862;0.000;0.000;2023-12-29T09:07:49;99440.66;;;22.25;53.30
78573;BME280;67862;0.000;0.000;2023-12-29T09:10:15;99441.16;;;22.27;54.05
78573;BME280;67862;0.000;0.000;2023-12-29T09:12:40;99443.91;;;22.27;53.76
78573;BME280;67862;0.000;0.000;2023-12-29T09:15:06;99437.31;;;22.28;54.18
78573;BME280;67862;0.000;0.000;2023-12-29T09:17:32;99432.41;;;22.30;53.99
78573;BME280;67862;0.000;0.000;2023-12-29T09:19:57;99436.75;;;22.31;53.40
78573;BME280;67862;0.000;0.000;2023-12-29T09:22:22;99434.03;;;22.31;53.32
78573;BME280;67862;0.000;0.000;2023-12-29T09:24:48;99438.09;;;22.34;53.17
78573;BME280;67862;0.000;0.000;2023-12-29T09:27:13;99433.97;;;22.36;53.56
78573;BME280;67862;0.000;0.000;2023-12-29T09:29:39;99426.00;;;22.40;54.28
78573;BME280;67862;0.000;0.000;2023-12-29T09:32:05;99416.91;;;22.44;54.32
78573;BME280;67862;0.000;0.000;2023-12-29T09:34:30;99404.03;;;22.45;54.03
78573;BME280;67862;0.000;0.000;2023-12-29T09:36:55;99393.09;;;22.45;54.08
78573;BME280;67862;0.000;0.000;2023-12-29T09:39:21;99391.19;;;22.45;53.75
78573;BME280;67862;0.000;0.000;2023-12-29T09:41:46;99403.75;;;22.46;53.99
78573;BME280;67862;0.000;0.000;2023-12-29T09:44:15;99412.22;;;22.50;53.24
78573;BME280;67862;0.000;0.000;2023-12-29T09:46:41;99415.47;;;22.52;53.05
78573;BME280;67862;0.000;0.000;2023-12-29T09:49:07;99419.22;;;22.56;53.67
78573;BME280;67862;0.000;0.000;2023-12-29T09:51:34;99413.47;;;22.57;53.95
78573;BME280;67862;0.000;0.000;2023-12-29T09:53:59;99413.19;;;22.59;53.55
78573;BME280;67862;0.000;0.000;2023-12-29T09:56:25;99411.25;;;22.60;53.87
78573;BME280;67862;0.000;0.000;2023-12-29T09:58:51;99411.19;;;22.65;53.76
78573;BME280;67862;0.000;0.000;2023-12-29T10:01:17;99407.34;;;22.66;53.12
78573;BME280;67862;0.000;0.000;2023-12-29T10:03:44;99412.81;;;22.66;53.06
78573;BME280;67862;0.000;0.000;2023-12-29T10:06:09;99410.59;;;22.68;53.36
78573;BME280;67862;0.000;0.000;2023-12-29T10:08:38;99410.03;;;22.71;52.66
78573;BME280;67862;0.000;0.000;2023-12-29T10:11:08;99407.00;;;22.72;53.23
78573;BME280;67862;0.000;0.000;2023-12-29T10:13:33;99402.84;;;22.75;53.14
78573;BME280;67862;0.000;0.000;2023-12-29T10:18:32;99394.06;;;22.78;52.89
78573;BME280;67862;0.000;0.000;2023-12-29T10:26:28;99394.16;;;22.92;53.32
78573;BME280;67862;0.000;0.000;2023-12-29T10:28:53;99391.66;;;22.95;53.21
78573;BME280;67862;0.000;0.000;2023-12-29T10:31:19;99389.97;;;22.99;53.13
78573;BME280;67862;0.000;0.000;2023-12-29T10:33:44;99389.34;;;23.02;53.11
78573;BME280;67862;0.000;0.000;2023-12-29T10:36:15;99398.59;;;23.06;53.41
78573;BME280;67862;0.000;0.000;2023-12-29T10:38:41;99394.47;;;23.09;53.26
78573;BME280;67862;0.000;0.000;2023-12-29T10:41:13;99388.69;;;23.10;53.19
78573;BME280;67862;0.000;0.000;2023-12-29T10:43:40;99388.59;;;23.16;53.58
78573;BME280;67862;0.000;0.000;2023-12-29T10:46:06;99388.84;;;23.19;53.74
78573;BME280;67862;0.000;0.000;2023-12-29T10:48:32;99373.94;;;23.25;53.90
78573;BME280;67862;0.000;0.000;2023-12-29T10:50:58;99387.28;;;23.32;53.73
78573;BME280;67862;0.000;0.000;2023-12-29T10:53:23;99376.53;;;23.35;53.90
78573;BME280;67862;0.000;0.000;2023-12-29T10:55:49;99358.09;;;23.41;53.72
78573;BME280;67862;0.000;0.000;2023-12-29T10:58:15;99365.19;;;23.42;53.79
78573;BME280;67862;0.000;0.000;2023-12-29T11:00:41;99359.13;;;23.45;53.92
78573;BME280;67862;0.000;0.000;2023-12-29T11:03:06;99358.22;;;23.50;53.93
78573;BME280;67862;0.000;0.000;2023-12-29T11:05:32;99361.97;;;23.54;54.25
78573;BME280;67862;0.000;0.000;2023-12-29T11:07:58;99360.03;;;23.54;54.14
78573;BME280;67862;0.000;0.000;2023-12-29T11:10:24;99341.91;;;23.58;54.13
78573;BME280;67862;0.000;0.000;2023-12-29T11:12:50;99347.38;;;23.58;54.34
78573;BME280;67862;0.000;0.000;2023-12-29T11:15:17;99345.19;;;23.60;53.95
78573;BME280;67862;0.000;0.000;2023-12-29T11:17:42;99345.38;;;23.64;53.97
78573;BME280;67862;0.000;0.000;2023-12-29T11:20:15;99345.59;;;23.67;54.07
78573;BME280;67862;0.000;0.000;2023-12-29T11:22:41;99344.78;;;23.67;53.62
78573;BME280;67862;0.000;0.000;2023-12-29T11:25:07;99353.31;;;23.65;54.18
78573;BME280;67862;0.000;0.000;2023-12-29T11:27:33;99346.41;;;23.68;54.09
78573;BME280;67862;0.000;0.000;2023-12-29T11:29:59;99342.56;;;23.69;53.65
78573;BME280;67862;0.000;0.000;2023-12-29T11:32:27;99333.53;;;23.68;53.65
78573;BME280;67862;0.000;0.000;2023-12-29T11:34:58;99332.72;;;23.68;53.18
78573;BME280;67862;0.000;0.000;2023-12-29T11:42:57;99325.69;;;23.62;53.53
78573;BME280;67862;0.000;0.000;2023-12-29T11:45:29;99322.13;;;23.61;53.06
78573;BME280;67862;0.000;0.000;2023-12-29T11:47:59;99321.63;;;23.59;52.98
78573;BME280;67862;0.000;0.000;2023-12-29T11:50:31;99318.34;;;23.57;53.09
78573;BME280;67862;0.000;0.000;2023-12-29T11:52:57;99320.28;;;23.57;53.01
78573;BME280;67862;0.000;0.000;2023-12-29T11:55:23;99321.69;;;23.54;53.09
78573;BME280;67862;0.000;0.000;2023-12-29T11:57:53;99317.78;;;23.60;53.30
78573;BME280;67862;0.000;0.000;2023-12-29T12:00:18;99311.47;;;23.60;52.78
78573;BME280;67862;0.000;0.000;2023-12-29T12:02:43;99313.47;;;23.54;52.99
78573;BME280;67862;0.000;0.000;2023-12-29T12:05:09;99311.63;;;23.50;52.83
78573;BME280;67862;0.000;0.000;2023-12-29T12:12:44;99307.06;;;23.45;53.00
78573;BME280;67862;0.000;0.000;2023-12-29T12:17:58;99298.00;;;23.45;52.83
78573;BME280;67862;0.000;0.000;2023-12-29T12:20:23;99299.13;;;23.43;52.93
78573;BME280;67862;0.000;0.000;2023-12-29T12:23:02;99283.50;;;23.44;52.77
78573;BME280;67862;0.000;0.000;2023-12-29T12:25:28;99288.16;;;23.43;52.64
78573;BME280;67862;0.000;0.000;2023-12-29T12:27:53;99278.56;;;23.46;52.88
78573;BME280;67862;0.000;0.000;2023-12-29T12:30:19;99273.88;;;23.47;52.35
78573;BME280;67862;0.000;0.000;2023-12-29T12:32:44;99272.88;;;23.56;53.24
78573;BME280;67862;0.000;0.000;2023-12-29T12:35:13;99274.00;;;23.55;52.61
78573;BME280;67862;0.000;0.000;2023-12-29T12:37:39;99275.41;;;23.53;52.85
78573;BME280;67862;0.000;0.000;2023-12-29T12:40:04;99285.56;;;23.52;52.59
78573;BME280;67862;0.000;0.000;2023-12-29T12:42:31;99278.44;;;23.51;52.64
78573;BME280;67862;0.000;0.000;2023-12-29T12:45:03;99273.59;;;23.48;52.85
78573;BME280;67862;0.000;0.000;2023-12-29T12:47:34;99283.44;;;23.49;52.71
78573;BME280;67862;0.000;0.000;2023-12-29T12:50:01;99278.25;;;23.48;52.50
78573;BME280;67862;0.000;0.000;2023-12-29T12:52:30;99277.75;;;23.46;53.01
78573;BME280;67862;0.000;0.000;2023-12-29T12:54:55;99282.41;;;23.45;52.73
78573;BME280;67862;0.000;0.000;2023-12-29T12:57:21;99275.28;;;23.44;52.64
78573;BME280;67862;0.000;0.000;2023-12-29T12:59:47;99273.88;;;23.47;52.65
78573;BME280;67862;0.000;0.000;2023-12-29T13:02:12;99273.09;;;23.46;53.07
78573;BME280;67862;0.000;0.000;2023-12-29T13:04:39;99271.47;;;23.45;52.87
78573;BME280;67862;0.000;0.000;2023-12-29T13:07:05;99265.97;;;23.45;52.92
78573;BME280;67862;0.000;0.000;2023-12-29T13:09:30;99274.47;;;23.43;53.10
78573;BME280;67862;0.000;0.000;2023-12-29T13:14:41;99267.38;;;23.42;53.04
78573;BME280;67862;0.000;0.000;2023-12-29T13:17:10;99274.19;;;23.45;53.98
78573;BME280;67862;0.000;0.000;2023-12-29T13:19:39;99274.91;;;23.51;53.73
78573;BME280;67862;0.000;0.000;2023-12-29T13:22:09;99280.25;;;23.42;53.70
78573;BME280;67862;0.000;0.000;2023-12-29T13:24:35;99277.00;;;23.40;54.07
78573;BME280;67862;0.000;0.000;2023-12-29T13:27:07;99271.03;;;23.38;53.91
78573;BME280;67862;0.000;0.000;2023-12-29T13:29:35;99281.19;;;23.37;53.78
78573;BME280;67862;0.000;0.000;2023-12-29T13:32:06;99274.88;;;23.37;53.72